createdAt,value
2024-05-09T00:02:08.574Z,9.50
2024-05-09T00:05:14.900Z,9.47
2024-05-09T00:08:24.483Z,9.49
2024-05-09T00:11:30.496Z,9.45
2024-05-09T00:14:37.364Z,9.43
2024-05-09T00:17:43.380Z,9.34
2024-05-09T00:20:50.178Z,9.27
2024-05-09T00:23:58.656Z,9.23
2024-05-09T00:27:05.533Z,9.23
2024-05-09T00:30:17.809Z,9.20
2024-05-09T00:33:31.397Z,9.21
2024-05-09T00:36:37.259Z,9.22
2024-05-09T00:39:47.436Z,9.22
2024-05-09T00:42:53.165Z,9.18
2024-05-09T00:46:02.186Z,9.12
2024-05-09T00:49:09.119Z,9.07
2024-05-09T00:52:16.086Z,8.95
2024-05-09T00:55:24.978Z,8.80
2024-05-09T00:58:33.437Z,8.74
2024-05-09T01:01:39.977Z,8.70
2024-05-09T01:04:47.050Z,8.64
2024-05-09T01:07:53.130Z,8.66
2024-05-09T01:11:02.655Z,8.60
2024-05-09T01:14:08.904Z,8.55
2024-05-09T01:17:16.803Z,8.54
2024-05-09T01:20:31.854Z,8.58
2024-05-09T01:23:49.386Z,8.59
2024-05-09T01:26:55.189Z,8.58
2024-05-09T01:30:02.279Z,8.45
2024-05-09T01:33:11.753Z,8.43
2024-05-09T01:36:19.354Z,8.40
2024-05-09T01:39:27.947Z,8.35
2024-05-09T01:42:34.615Z,8.29
2024-05-09T01:45:41.208Z,8.30
2024-05-09T01:48:49.049Z,8.19
2024-05-09T01:51:55.115Z,8.29
2024-05-09T01:55:06.371Z,8.25
2024-05-09T01:58:12.975Z,8.18
2024-05-09T02:01:19.767Z,8.12
2024-05-09T02:04:25.867Z,8.10
2024-05-09T02:07:32.730Z,8.10
2024-05-09T02:10:41.470Z,8.07
2024-05-09T02:13:48.267Z,8.00
2024-05-09T02:16:54.162Z,8.00
2024-05-09T02:20:00.956Z,7.95
2024-05-09T02:23:07.789Z,7.91
2024-05-09T02:26:17.291Z,7.92
2024-05-09T02:29:23.276Z,7.91
2024-05-09T02:32:30.404Z,7.87
2024-05-09T02:35:36.566Z,7.81
2024-05-09T02:38:40.889Z,7.78
2024-05-09T02:41:49.448Z,7.72
2024-05-09T02:44:53.802Z,7.62
2024-05-09T02:47:59.692Z,7.57
2024-05-09T02:53:39.643Z,7.49
2024-05-09T02:56:43.814Z,7.49
2024-05-09T02:59:50.891Z,7.49
2024-05-09T03:02:57.822Z,7.51
2024-05-09T03:06:02.542Z,7.57
2024-05-09T03:09:12.388Z,7.47
2024-05-09T03:12:18.185Z,7.37
2024-05-09T03:15:22.810Z,7.37
2024-05-09T03:18:28.845Z,7.28
2024-05-09T03:21:33.080Z,7.21
2024-05-09T03:24:41.760Z,7.13
2024-05-09T03:27:48.472Z,7.23
2024-05-09T03:30:54.301Z,7.27
2024-05-09T03:34:01.109Z,7.31
2024-05-09T03:37:07.553Z,7.37
2024-05-09T03:40:23.467Z,7.31
2024-05-09T03:43:31.904Z,7.42
2024-05-09T03:46:38.491Z,7.42
2024-05-09T03:49:44.348Z,7.38
2024-05-09T03:52:48.823Z,7.39
2024-05-09T03:55:57.307Z,7.43
2024-05-09T03:59:04.456Z,7.48
2024-05-09T04:02:07.746Z,7.45
2024-05-09T04:05:15.212Z,7.49
2024-05-09T04:08:18.407Z,7.80
2024-05-09T04:11:27.862Z,8.47
2024-05-09T04:14:31.206Z,9.09
2024-05-09T04:17:41.029Z,9.50
2024-05-09T04:20:45.545Z,9.72
2024-05-09T04:23:52.286Z,10.10
2024-05-09T04:26:58.158Z,10.17
2024-05-09T04:30:07.790Z,10.24
2024-05-09T04:33:15.462Z,10.37
2024-05-09T04:36:22.431Z,10.73
2024-05-09T04:39:25.737Z,10.74
2024-05-09T04:42:35.058Z,11.10
2024-05-09T04:45:38.340Z,11.82
2024-05-09T04:48:46.144Z,11.92
2024-05-09T04:51:52.060Z,12.09
2024-05-09T04:54:58.523Z,12.08
2024-05-09T04:58:09.871Z,12.42
2024-05-09T05:01:16.448Z,11.96
2024-05-09T05:04:22.199Z,12.34
2024-05-09T05:07:26.273Z,12.27
2024-05-09T05:10:36.127Z,13.27
2024-05-09T05:13:44.003Z,12.64
2024-05-09T05:16:49.888Z,13.13
2024-05-09T05:19:54.434Z,13.26
2024-05-09T05:23:00.685Z,13.77
2024-05-09T05:26:06.045Z,14.64
2024-05-09T05:29:15.514Z,14.49
2024-05-09T05:32:20.608Z,14.59
2024-05-09T05:35:26.520Z,15.38
2024-05-09T05:38:33.441Z,15.25
2024-05-09T05:41:39.357Z,16.54
2024-05-09T05:44:48.671Z,15.57
2024-05-09T05:47:55.233Z,16.17
2024-05-09T05:51:04.332Z,17.07
2024-05-09T05:54:10.505Z,17.20
2024-05-09T05:57:15.490Z,18.19
2024-05-09T06:00:29.693Z,19.23
2024-05-09T06:03:41.426Z,20.65
2024-05-09T06:06:47.427Z,20.13
2024-05-09T06:09:51.498Z,18.23
2024-05-09T06:12:57.288Z,17.94
2024-05-09T06:16:05.202Z,18.11
2024-05-09T06:19:11.131Z,18.56
2024-05-09T06:22:17.942Z,18.76
2024-05-09T06:25:21.123Z,19.03
2024-05-09T06:28:27.845Z,18.98
2024-05-09T06:31:33.679Z,19.67
2024-05-09T06:34:40.535Z,18.49
2024-05-09T06:37:43.712Z,17.96
2024-05-09T06:40:50.550Z,18.16
2024-05-09T06:43:53.771Z,18.60
2024-05-09T06:47:03.126Z,18.81
2024-05-09T06:50:13.325Z,19.47
2024-05-09T06:53:28.052Z,19.56
2024-05-09T06:56:31.431Z,19.18
2024-05-09T06:59:38.205Z,20.13
2024-05-09T07:02:44.185Z,21.70
2024-05-09T07:05:51.102Z,23.08
2024-05-09T07:08:54.506Z,22.58
2024-05-09T07:12:01.476Z,22.49
2024-05-09T07:15:05.631Z,24.10
2024-05-09T07:18:20.404Z,22.77
2024-05-09T07:21:24.530Z,22.65
2024-05-09T07:24:31.250Z,22.13
2024-05-09T07:27:36.778Z,21.54
2024-05-09T07:30:43.685Z,20.83
2024-05-09T07:33:52.521Z,22.08
2024-05-09T07:36:56.737Z,23.20
2024-05-09T07:40:05.793Z,23.63
2024-05-09T07:43:12.015Z,21.93
2024-05-09T07:47:14.287Z,21.67
2024-05-09T07:51:32.217Z,22.75
2024-05-09T07:53:37.072Z,21.91
2024-05-09T07:56:37.197Z,22.38
2024-05-09T07:59:40.491Z,22.99
2024-05-09T08:02:47.416Z,22.82
2024-05-09T08:05:56.212Z,23.77
2024-05-09T08:09:07.764Z,23.16
2024-05-09T08:12:14.260Z,21.62
2024-05-09T08:15:21.004Z,20.59
2024-05-09T08:18:24.405Z,21.81
2024-05-09T08:21:34.549Z,20.91
2024-05-09T08:24:37.960Z,20.27
2024-05-09T08:27:44.961Z,20.20
2024-05-09T08:30:48.547Z,20.56
2024-05-09T08:33:56.769Z,20.79
2024-05-09T08:37:10.130Z,19.90
2024-05-09T08:40:30.673Z,20.02
2024-05-09T08:43:42.048Z,20.09
2024-05-09T08:46:51.322Z,20.66
2024-05-09T08:50:02.002Z,20.03
2024-05-09T08:53:09.142Z,20.16
2024-05-09T08:56:17.232Z,20.57
2024-05-09T08:59:38.008Z,20.69
2024-05-09T09:02:47.817Z,20.81
2024-05-09T09:06:06.430Z,20.85
2024-05-09T09:09:15.735Z,20.43
2024-05-09T09:12:22.543Z,20.14
2024-05-09T09:15:25.705Z,21.65
2024-05-09T09:18:33.351Z,22.58
2024-05-09T09:21:37.323Z,23.30
2024-05-09T09:24:46.806Z,22.77
2024-05-09T09:27:50.180Z,20.67
2024-05-09T09:30:57.094Z,20.50
2024-05-09T09:34:08.159Z,20.61
2024-05-09T09:37:15.154Z,20.12
2024-05-09T09:40:31.692Z,19.47
2024-05-09T09:43:40.966Z,20.05
2024-05-09T09:46:49.295Z,22.10
2024-05-09T09:49:54.486Z,23.20
2024-05-09T09:53:03.881Z,23.01
2024-05-09T09:56:11.779Z,22.58
2024-05-09T09:59:18.644Z,21.67
2024-05-09T10:02:23.150Z,21.13
2024-05-09T10:05:29.906Z,21.80
2024-05-09T10:08:37.000Z,23.03
2024-05-09T10:11:51.743Z,23.65
2024-05-09T10:14:56.297Z,22.54
2024-05-09T10:18:09.094Z,22.80
2024-05-09T10:21:17.083Z,20.49
2024-05-09T10:24:22.910Z,20.59
2024-05-09T10:27:31.051Z,20.35
2024-05-09T10:30:37.440Z,21.04
2024-05-09T10:33:48.590Z,22.32
2024-05-09T10:36:56.639Z,21.45
2024-05-09T10:40:04.095Z,22.37
2024-05-09T10:43:23.191Z,22.60
2024-05-09T10:46:27.388Z,22.79
2024-05-09T10:49:34.057Z,22.77
2024-05-09T10:52:40.767Z,21.67
2024-05-09T10:55:43.979Z,20.76
2024-05-09T10:58:54.932Z,21.66
2024-05-09T11:01:59.152Z,22.19
2024-05-09T11:05:06.237Z,22.85
2024-05-09T11:08:11.125Z,21.50
2024-05-09T11:11:19.439Z,20.99
2024-05-09T11:14:25.219Z,20.32
2024-05-09T11:17:40.480Z,21.08
2024-05-09T11:20:43.867Z,21.74
2024-05-09T11:23:51.087Z,20.93
2024-05-09T11:26:54.533Z,20.24
2024-05-09T11:30:04.498Z,19.53
2024-05-09T11:33:11.859Z,20.09
2024-05-09T11:36:19.489Z,21.33
2024-05-09T11:39:25.410Z,20.75
2024-05-09T11:42:29.437Z,21.09
2024-05-09T11:45:37.902Z,19.73
2024-05-09T11:48:42.338Z,18.98
2024-05-09T11:51:48.213Z,18.79
2024-05-09T11:54:52.302Z,18.36
2024-05-09T11:57:58.456Z,18.85
2024-05-09T12:01:05.684Z,19.42
2024-05-09T12:04:12.498Z,19.44
2024-05-09T12:07:18.943Z,20.38
2024-05-09T12:10:33.035Z,20.54
2024-05-09T12:13:39.488Z,20.66
2024-05-09T12:16:48.069Z,21.26
2024-05-09T12:19:52.929Z,21.13
2024-05-09T12:22:58.691Z,21.08
2024-05-09T12:26:03.283Z,20.60
2024-05-09T12:29:09.075Z,21.14
2024-05-09T12:32:15.893Z,21.83
2024-05-09T12:35:21.920Z,22.08
2024-05-09T12:38:26.034Z,22.50
2024-05-09T12:41:31.827Z,21.55
2024-05-09T12:44:35.910Z,21.58
2024-05-09T12:47:44.493Z,21.75
2024-05-09T12:50:48.997Z,21.40
2024-05-09T12:53:54.903Z,20.35
2024-05-09T12:57:01.688Z,19.89
2024-05-09T13:00:07.325Z,20.22
2024-05-09T13:03:16.855Z,20.12
2024-05-09T13:06:22.834Z,20.35
2024-05-09T13:09:27.008Z,20.58
2024-05-09T13:12:32.754Z,20.94
2024-05-09T13:15:37.357Z,21.36
2024-05-09T13:18:46.119Z,21.57
2024-05-09T13:21:50.243Z,21.60
2024-05-09T13:24:56.216Z,21.86
2024-05-09T13:28:00.892Z,21.93
2024-05-09T13:31:07.258Z,22.13
2024-05-09T13:34:16.842Z,22.22
2024-05-09T13:37:20.217Z,22.28
2024-05-09T13:40:32.935Z,22.35
2024-05-09T13:43:41.142Z,22.46
2024-05-09T13:46:45.550Z,22.07
2024-05-09T13:49:54.472Z,21.50
2024-05-09T13:53:01.250Z,21.44
2024-05-09T13:56:05.202Z,21.15
2024-05-09T13:59:13.343Z,21.24
2024-05-09T14:02:19.366Z,21.23
2024-05-09T14:05:26.331Z,21.16
2024-05-09T14:08:32.651Z,21.51
2024-05-09T14:11:39.687Z,21.75
2024-05-09T14:14:42.901Z,21.82
2024-05-09T14:17:50.192Z,22.07
2024-05-09T14:20:56.032Z,21.37
2024-05-09T14:24:02.873Z,21.09
2024-05-09T14:27:06.485Z,20.88
2024-05-09T14:30:22.094Z,20.83
2024-05-09T14:33:32.358Z,21.15
2024-05-09T14:36:39.268Z,21.45
2024-05-09T14:39:45.152Z,21.44
2024-05-09T14:42:49.372Z,21.53
2024-05-09T14:45:56.254Z,21.61
2024-05-09T14:49:00.703Z,21.06
2024-05-09T14:52:09.930Z,20.29
2024-05-09T14:55:14.364Z,20.16
2024-05-09T14:58:20.610Z,20.13
2024-05-09T15:01:25.230Z,20.42
2024-05-09T15:04:31.191Z,20.57
2024-05-09T15:07:38.431Z,20.62
2024-05-09T15:10:44.492Z,20.76
2024-05-09T15:13:48.715Z,20.70
2024-05-09T15:16:54.610Z,20.70
2024-05-09T15:20:01.619Z,20.53
2024-05-09T15:23:07.987Z,20.31
2024-05-09T15:26:15.130Z,20.10
2024-05-09T15:29:18.429Z,20.04
2024-05-09T15:32:29.747Z,19.94
2024-05-09T15:35:34.534Z,19.69
2024-05-09T15:38:43.900Z,19.93
2024-05-09T15:41:47.153Z,20.09
2024-05-09T15:44:53.995Z,19.96
2024-05-09T15:48:00.308Z,19.90
2024-05-09T15:51:07.775Z,19.98
2024-05-09T15:54:16.436Z,19.92
2024-05-09T15:57:20.794Z,19.78
2024-05-09T16:00:36.544Z,19.77
2024-05-09T16:03:47.220Z,19.61
2024-05-09T16:06:50.756Z,19.53
2024-05-09T16:10:00.467Z,19.63
2024-05-09T16:13:04.220Z,19.84
2024-05-09T16:16:11.912Z,19.67
2024-05-09T16:19:15.234Z,19.60
2024-05-09T16:22:22.050Z,19.37
2024-05-09T16:25:27.918Z,19.26
2024-05-09T16:28:36.951Z,19.31
2024-05-09T16:31:40.234Z,19.38
2024-05-09T16:34:47.013Z,19.30
2024-05-09T16:37:50.296Z,19.20
2024-05-09T16:40:59.712Z,19.34
2024-05-09T16:44:04.360Z,19.47
2024-05-09T16:47:11.592Z,19.53
2024-05-09T16:50:25.722Z,19.48
2024-05-09T16:53:36.033Z,19.44
2024-05-09T16:56:42.082Z,19.49
2024-05-09T16:59:48.875Z,19.91
2024-05-09T17:02:54.621Z,19.47
2024-05-09T17:06:03.444Z,19.30
2024-05-09T17:09:11.658Z,19.15
2024-05-09T17:12:24.623Z,19.25
2024-05-09T17:15:30.331Z,19.09
2024-05-09T17:18:37.327Z,19.00
2024-05-09T17:21:43.431Z,18.73
2024-05-09T17:24:47.622Z,18.64
2024-05-09T17:27:56.399Z,18.47
2024-05-09T17:31:03.405Z,18.42
2024-05-09T17:37:14.112Z,19.48
2024-05-09T17:40:27.139Z,18.80
2024-05-09T17:44:45.520Z,18.19
2024-05-09T17:47:52.769Z,17.82
2024-05-09T17:50:58.743Z,17.56
2024-05-09T17:54:02.922Z,17.41
2024-05-09T17:57:09.487Z,17.25
2024-05-09T18:00:24.648Z,17.07
2024-05-09T18:03:40.050Z,16.95
2024-05-09T18:06:44.436Z,16.84
2024-05-09T18:09:50.441Z,16.68
2024-05-09T18:12:54.630Z,16.52
2024-05-09T18:16:03.358Z,16.46
2024-05-09T18:19:07.843Z,16.34
2024-05-09T18:22:13.770Z,16.20
2024-05-09T18:25:18.214Z,16.02
2024-05-09T18:28:24.998Z,15.94
2024-05-09T18:31:34.452Z,15.81
2024-05-09T18:34:40.345Z,15.70
2024-05-09T18:37:47.431Z,15.67
2024-05-09T18:40:50.649Z,15.60
2024-05-09T18:43:57.383Z,15.54
2024-05-09T18:47:04.791Z,15.43
2024-05-09T18:50:17.388Z,15.28
2024-05-09T18:53:30.345Z,15.15
2024-05-09T18:56:37.291Z,15.06
2024-05-09T18:59:43.071Z,15.00
2024-05-09T19:02:50.010Z,14.94
2024-05-09T19:05:56.276Z,14.83
2024-05-09T19:09:00.379Z,14.75
2024-05-09T19:12:06.877Z,14.59
2024-05-09T19:15:10.959Z,14.53
2024-05-09T19:18:20.018Z,14.39
2024-05-09T19:21:24.179Z,14.33
2024-05-09T19:24:29.899Z,14.29
2024-05-09T19:27:36.590Z,14.25
2024-05-09T19:30:42.175Z,14.22
2024-05-09T19:33:52.421Z,14.29
2024-05-09T19:37:00.223Z,14.19
2024-05-09T19:40:08.357Z,14.11
2024-05-09T19:43:16.294Z,14.17
2024-05-09T19:46:20.650Z,14.16
2024-05-09T19:49:29.120Z,13.99
2024-05-09T19:52:33.331Z,13.90
2024-05-09T19:55:39.250Z,13.91
2024-05-09T19:58:43.311Z,13.89
2024-05-09T20:01:49.186Z,13.83
2024-05-09T20:04:56.003Z,13.81
2024-05-09T20:08:01.859Z,13.66
2024-05-09T20:11:06.267Z,13.63
2024-05-09T20:14:11.995Z,13.61
2024-05-09T20:17:15.962Z,13.53
2024-05-09T20:20:33.109Z,13.45
2024-05-09T20:23:45.146Z,13.40
2024-05-09T20:26:48.252Z,13.29
2024-05-09T20:29:54.947Z,13.12
2024-05-09T20:32:58.223Z,12.83
2024-05-09T20:36:09.299Z,12.80
2024-05-09T20:39:15.053Z,12.79
2024-05-09T20:42:19.204Z,12.84
2024-05-09T20:45:24.967Z,12.83
2024-05-09T20:48:29.151Z,12.74
2024-05-09T20:51:37.831Z,12.64
2024-05-09T20:54:41.984Z,12.59
2024-05-09T20:57:47.964Z,12.62
2024-05-09T21:00:52.446Z,12.64
2024-05-09T21:03:58.461Z,12.63
2024-05-09T21:07:08.121Z,12.58
2024-05-09T21:10:15.860Z,12.57
2024-05-09T21:13:29.029Z,12.36
2024-05-09T21:16:34.316Z,12.23
2024-05-09T21:19:41.109Z,12.12
2024-05-09T21:22:49.705Z,12.15
2024-05-09T21:25:53.772Z,12.16
2024-05-09T21:28:59.567Z,12.22
2024-05-09T21:32:03.945Z,12.26
2024-05-09T21:35:10.394Z,12.25
2024-05-09T21:38:17.090Z,12.26
2024-05-09T21:41:22.825Z,12.19
2024-05-09T21:44:26.875Z,12.17
2024-05-09T21:47:33.018Z,12.13
2024-05-09T21:50:42.191Z,12.09
2024-05-09T21:53:51.727Z,12.07
2024-05-09T21:56:55.892Z,12.02
2024-05-09T22:00:01.688Z,11.93
2024-05-09T22:03:10.870Z,11.87
2024-05-09T22:06:17.607Z,11.83
2024-05-09T22:09:24.378Z,11.78
2024-05-09T22:12:30.345Z,11.70
2024-05-09T22:15:37.307Z,11.58
2024-05-09T22:18:44.055Z,11.48
2024-05-09T22:21:49.287Z,11.41
2024-05-09T22:24:57.861Z,11.36
2024-05-09T22:28:03.736Z,11.32
2024-05-09T22:31:11.954Z,11.32
2024-05-09T22:34:18.883Z,11.32
2024-05-09T22:37:22.194Z,11.29
2024-05-09T22:40:42.152Z,11.27
2024-05-09T22:43:50.853Z,11.23
2024-05-09T22:46:57.708Z,11.09
2024-05-09T22:50:00.879Z,10.92
2024-05-09T22:53:08.477Z,10.86
2024-05-09T22:56:15.515Z,10.78
2024-05-09T22:59:22.278Z,10.71
2024-05-09T23:02:25.623Z,10.72
2024-05-09T23:05:33.824Z,10.73
2024-05-09T23:08:37.030Z,10.67
2024-05-09T23:11:47.796Z,10.57
2024-05-09T23:14:53.566Z,10.58
2024-05-09T23:17:58.427Z,10.60
2024-05-09T23:21:04.696Z,10.58
2024-05-09T23:24:09.234Z,10.48
2024-05-09T23:27:17.809Z,10.50
2024-05-09T23:30:29.535Z,10.46
2024-05-09T23:33:49.059Z,10.39
2024-05-09T23:36:53.315Z,10.35
2024-05-09T23:39:59.117Z,10.29
2024-05-09T23:43:06.336Z,10.25
2024-05-09T23:46:14.523Z,10.20
2024-05-09T23:49:18.818Z,10.13
2024-05-09T23:52:24.975Z,10.03
2024-05-09T23:55:29.260Z,9.93
2024-05-09T23:58:37.878Z,9.85
